createdAt,value
2022-10-17T00:00:50.295Z,81.4
2022-10-17T00:01:50.407Z,81.3
2022-10-17T00:02:50.277Z,81.3
2022-10-17T00:03:50.283Z,81.3
2022-10-17T00:04:50.301Z,81.3
2022-10-17T00:05:50.293Z,81.3
2022-10-17T00:06:50.309Z,81.4
2022-10-17T00:07:50.313Z,81.4
2022-10-17T00:08:50.321Z,81.4
2022-10-17T00:09:50.328Z,81.4
2022-10-17T00:10:50.344Z,81.4
2022-10-17T00:11:50.359Z,81.5
2022-10-17T00:12:50.348Z,81.5
2022-10-17T00:13:50.353Z,81.6
2022-10-17T00:14:50.365Z,81.7
2022-10-17T00:15:50.370Z,81.7
2022-10-17T00:16:50.377Z,81.6
2022-10-17T00:17:50.387Z,81.6
2022-10-17T00:18:50.393Z,81.6
2022-10-17T00:19:50.403Z,81.6
2022-10-17T00:20:50.413Z,81.6
2022-10-17T00:21:50.433Z,81.7
2022-10-17T00:22:50.429Z,81.7
2022-10-17T00:23:50.437Z,81.7
2022-10-17T00:24:50.447Z,81.7
2022-10-17T00:25:50.452Z,81.7
2022-10-17T00:26:50.465Z,81.8
2022-10-17T00:27:50.476Z,81.8
2022-10-17T00:28:50.814Z,81.8
2022-10-17T00:29:50.486Z,81.8
2022-10-17T00:30:50.491Z,81.8
2022-10-17T00:31:50.613Z,81.8
2022-10-17T00:32:50.506Z,81.9
2022-10-17T00:33:50.520Z,81.9
2022-10-17T00:34:50.524Z,81.9
2022-10-17T00:35:50.530Z,82.0
2022-10-17T00:36:50.542Z,82.0
2022-10-17T00:37:50.549Z,82.1
2022-10-17T00:38:50.553Z,82.0
2022-10-17T00:39:50.562Z,82.1
2022-10-17T00:40:50.721Z,82.0
2022-10-17T00:41:50.572Z,82.1
2022-10-17T00:42:50.584Z,82.1
2022-10-17T01:00:51.116Z,82.5
2022-10-17T01:01:50.754Z,82.5
2022-10-17T01:02:50.761Z,82.5
2022-10-17T01:03:50.770Z,82.4
2022-10-17T01:04:50.793Z,82.4
2022-10-17T01:05:50.798Z,82.4
2022-10-17T01:06:50.819Z,82.4
2022-10-17T01:07:50.817Z,82.2
2022-10-17T01:08:50.826Z,82.3
2022-10-17T01:09:50.840Z,82.3
2022-10-17T01:10:50.850Z,82.2
2022-10-17T01:11:50.850Z,82.2
2022-10-17T01:12:50.854Z,82.1
2022-10-17T01:13:50.869Z,82.1
2022-10-17T01:14:50.878Z,82.1
2022-10-17T01:15:50.886Z,82.0
2022-10-17T01:16:50.896Z,82.0
2022-10-17T01:17:50.905Z,82.0
2022-10-17T01:18:50.917Z,82.0
2022-10-17T01:19:50.932Z,82.0
2022-10-17T01:20:50.944Z,82.0
2022-10-17T01:21:50.947Z,82.0
2022-10-17T01:22:50.955Z,82.0
2022-10-17T01:23:50.960Z,81.9
2022-10-17T01:24:50.970Z,81.9
2022-10-17T01:25:50.975Z,81.9
2022-10-17T01:26:50.983Z,81.9
2022-10-17T01:27:50.995Z,81.9
2022-10-17T01:28:51.013Z,81.9
2022-10-17T01:29:51.023Z,81.9
2022-10-17T01:30:51.032Z,81.9
2022-10-17T01:31:51.038Z,81.8
2022-10-17T01:32:51.044Z,81.8
2022-10-17T01:33:51.055Z,81.8
2022-10-17T01:34:51.066Z,81.7
2022-10-17T01:35:51.064Z,81.6
2022-10-17T01:36:51.083Z,81.6
2022-10-17T01:38:51.098Z,81.6
2022-10-17T01:39:51.107Z,81.6
2022-10-17T01:40:51.109Z,81.6
2022-10-17T01:41:51.116Z,81.6
2022-10-17T01:42:51.126Z,81.6
2022-10-17T01:43:51.131Z,81.6
2022-10-17T01:44:51.146Z,81.6
2022-10-17T01:45:51.157Z,81.5
2022-10-17T01:46:51.412Z,81.5
2022-10-17T01:47:51.173Z,81.5
2022-10-17T01:48:51.189Z,81.4
2022-10-17T01:49:51.199Z,81.4
2022-10-17T01:50:51.205Z,81.3
2022-10-17T01:51:51.214Z,81.3
2022-10-17T01:52:51.222Z,81.3
2022-10-17T01:53:51.226Z,81.2
2022-10-17T01:54:51.247Z,81.3
2022-10-17T01:55:51.400Z,81.3
2022-10-17T01:56:51.252Z,81.3
2022-10-17T01:57:51.266Z,81.3
2022-10-17T01:58:51.275Z,81.2
2022-10-17T01:59:51.291Z,81.1
2022-10-17T02:00:51.293Z,81.1
2022-10-17T02:01:51.517Z,81.0
2022-10-17T02:02:51.316Z,81.0
2022-10-17T02:03:51.338Z,81.0
2022-10-17T02:04:51.486Z,81.0
2022-10-17T02:05:51.348Z,80.9
2022-10-17T02:06:51.364Z,80.9
2022-10-17T02:07:51.368Z,80.9
2022-10-17T02:08:51.379Z,80.9
2022-10-17T02:09:51.398Z,80.8
2022-10-17T02:10:51.396Z,80.7
2022-10-17T02:11:51.403Z,80.8
2022-10-17T02:12:51.409Z,80.7
2022-10-17T02:13:51.420Z,80.7
2022-10-17T02:14:51.436Z,80.7
2022-10-17T02:15:51.444Z,80.6
2022-10-17T02:16:51.455Z,80.6
2022-10-17T02:17:51.468Z,80.5
2022-10-17T02:18:51.488Z,80.5
2022-10-17T02:19:51.491Z,80.4
2022-10-17T02:20:51.500Z,80.3
2022-10-17T02:21:51.502Z,80.3
2022-10-17T02:22:51.519Z,80.4
2022-10-17T02:23:51.516Z,80.3
2022-10-17T02:24:51.543Z,80.3
2022-10-17T02:25:51.531Z,80.3
2022-10-17T02:26:51.542Z,80.3
2022-10-17T02:27:51.549Z,80.2
2022-10-17T02:28:51.815Z,80.2
2022-10-17T02:29:51.570Z,80.1
2022-10-17T02:30:51.590Z,80.1
2022-10-17T02:31:51.590Z,80.0
2022-10-17T02:32:51.601Z,80.1
2022-10-17T02:33:51.620Z,80.0
2022-10-17T02:34:51.625Z,79.9
2022-10-17T02:35:51.632Z,79.9
2022-10-17T02:36:51.645Z,79.8
2022-10-17T02:37:51.653Z,79.6
2022-10-17T02:38:51.660Z,79.6
2022-10-17T02:39:51.672Z,79.6
2022-10-17T02:40:51.687Z,79.6
2022-10-17T02:41:51.689Z,79.6
2022-10-17T02:42:51.705Z,79.6
2022-10-17T02:43:51.714Z,79.6
2022-10-17T02:44:51.738Z,79.5
2022-10-17T02:45:51.743Z,79.5
2022-10-17T02:46:51.744Z,79.5
2022-10-17T02:47:51.755Z,79.6
2022-10-17T02:48:51.772Z,79.6
2022-10-17T02:49:51.780Z,79.6
2022-10-17T02:50:51.786Z,79.5
2022-10-17T02:52:00.510Z,79.5
2022-10-17T02:52:51.809Z,79.5
2022-10-17T02:53:51.818Z,79.5
2022-10-17T02:54:51.831Z,79.6
2022-10-17T02:55:51.838Z,79.6
2022-10-17T02:56:51.858Z,79.6
2022-10-17T02:57:51.854Z,79.5
2022-10-17T02:58:51.867Z,79.5
2022-10-17T02:59:51.876Z,79.4
2022-10-17T03:00:52.084Z,79.4
2022-10-17T03:01:51.896Z,79.4
2022-10-17T03:02:51.900Z,79.4
2022-10-17T03:03:51.917Z,79.4
2022-10-17T03:04:51.926Z,79.3
2022-10-17T03:05:51.927Z,79.3
2022-10-17T03:06:51.938Z,79.3
2022-10-17T03:07:51.950Z,79.3
2022-10-17T03:08:51.965Z,79.3
2022-10-17T03:09:51.964Z,79.2
2022-10-17T03:10:51.979Z,79.2
2022-10-17T03:11:51.982Z,79.2
2022-10-17T03:12:51.994Z,79.1
2022-10-17T03:13:51.998Z,79.1
2022-10-17T03:14:52.010Z,78.9
2022-10-17T03:15:52.011Z,78.9
2022-10-17T03:16:52.023Z,78.9
2022-10-17T03:17:52.029Z,78.8
2022-10-17T03:18:52.043Z,78.8
2022-10-17T03:19:52.045Z,78.8
2022-10-17T03:20:52.059Z,78.7
2022-10-17T03:21:52.075Z,78.6
2022-10-17T03:22:52.088Z,78.6
2022-10-17T03:23:52.105Z,78.6
2022-10-17T03:24:52.112Z,78.5
2022-10-17T03:25:52.127Z,78.4
2022-10-17T03:26:52.146Z,78.4
2022-10-17T03:27:52.141Z,78.3
2022-10-17T03:28:54.909Z,78.4
2022-10-17T03:29:52.165Z,78.4
2022-10-17T03:30:52.167Z,78.4
2022-10-17T03:31:52.176Z,78.4
2022-10-17T03:32:52.190Z,78.2
2022-10-17T03:33:52.195Z,78.2
2022-10-17T03:34:52.199Z,78.3
2022-10-17T03:35:52.233Z,78.4
2022-10-17T03:36:52.240Z,78.4
2022-10-17T03:37:52.249Z,78.3
2022-10-17T03:38:52.242Z,78.4
2022-10-17T03:39:52.255Z,78.6
2022-10-17T03:40:52.260Z,78.8
2022-10-17T03:41:52.269Z,78.9
2022-10-17T03:42:52.285Z,78.9
2022-10-17T03:43:52.297Z,79.1
2022-10-17T03:44:52.305Z,79.3
2022-10-17T03:45:52.317Z,79.3
2022-10-17T03:46:52.331Z,79.3
2022-10-17T03:47:52.326Z,79.4
2022-10-17T03:48:52.342Z,79.4
2022-10-17T03:49:52.350Z,79.6
2022-10-17T03:50:52.359Z,79.7
2022-10-17T03:51:52.377Z,79.6
2022-10-17T03:52:52.387Z,79.7
2022-10-17T03:53:52.401Z,79.7
2022-10-17T03:54:52.412Z,79.8
2022-10-17T03:55:52.423Z,79.9
2022-10-17T03:56:52.657Z,80.0
2022-10-17T03:57:52.446Z,80.0
2022-10-17T03:58:52.448Z,80.0
2022-10-17T03:59:52.555Z,80.0
2022-10-17T04:00:52.577Z,80.1
2022-10-17T04:01:52.484Z,80.3
2022-10-17T04:02:52.486Z,80.4
2022-10-17T04:03:52.497Z,80.4
2022-10-17T04:04:52.488Z,80.3
2022-10-17T04:05:52.505Z,80.5
2022-10-17T04:06:52.512Z,80.6
2022-10-17T04:07:52.532Z,80.8
2022-10-17T04:08:52.535Z,80.8
2022-10-17T04:09:52.543Z,81.0
2022-10-17T04:10:52.548Z,81.0
2022-10-17T04:11:52.556Z,81.2
2022-10-17T04:12:52.566Z,81.1
2022-10-17T04:13:52.581Z,81.2
2022-10-17T04:14:52.594Z,81.3
2022-10-17T04:15:52.598Z,81.4
2022-10-17T04:16:52.618Z,81.3
2022-10-17T04:17:52.791Z,81.2
2022-10-17T04:18:52.637Z,81.3
2022-10-17T04:19:52.648Z,81.4
2022-10-17T04:20:52.668Z,81.4
2022-10-17T04:21:52.678Z,81.5
2022-10-17T04:22:52.683Z,81.6
2022-10-17T04:23:52.696Z,81.6
2022-10-17T04:24:52.703Z,81.6
2022-10-17T04:25:52.738Z,81.7
2022-10-17T04:26:52.743Z,81.6
2022-10-17T04:27:52.731Z,81.7
2022-10-17T04:28:52.742Z,81.8
2022-10-17T04:29:52.754Z,81.7
2022-10-17T04:30:54.374Z,81.8
2022-10-17T04:31:52.761Z,81.8
2022-10-17T04:32:52.766Z,81.7
2022-10-17T04:33:52.772Z,81.6
2022-10-17T04:34:52.788Z,81.6
2022-10-17T04:35:52.794Z,81.7
2022-10-17T04:36:52.814Z,81.8
2022-10-17T04:37:52.809Z,81.8
2022-10-17T04:38:52.828Z,81.8
2022-10-17T04:39:52.833Z,81.8
2022-10-17T04:40:52.849Z,81.9
2022-10-17T04:41:52.844Z,81.9
2022-10-17T04:42:52.851Z,82.0
2022-10-17T04:43:52.857Z,82.1
2022-10-17T04:44:52.870Z,82.2
2022-10-17T04:45:52.881Z,82.1
2022-10-17T04:46:52.901Z,82.1
2022-10-17T04:47:52.897Z,82.2
2022-10-17T04:48:52.908Z,82.2
2022-10-17T04:49:52.922Z,82.2
2022-10-17T04:50:52.936Z,82.2
2022-10-17T04:51:52.942Z,82.3
2022-10-17T04:52:52.956Z,82.4
2022-10-17T04:53:53.115Z,82.4
2022-10-17T04:54:52.977Z,82.3
2022-10-17T04:55:52.987Z,82.3
2022-10-17T04:56:53.005Z,82.3
2022-10-17T04:57:53.007Z,82.4
2022-10-17T04:58:53.029Z,82.3
2022-10-17T04:59:53.031Z,82.3
2022-10-17T05:00:53.246Z,82.4
2022-10-17T05:01:53.054Z,82.5
2022-10-17T05:02:53.068Z,82.5
2022-10-17T05:03:53.072Z,82.6
2022-10-17T05:04:53.086Z,82.6
2022-10-17T05:05:53.095Z,82.6
2022-10-17T05:06:53.107Z,82.6
2022-10-17T05:07:53.127Z,82.7
2022-10-17T05:08:53.146Z,82.8
2022-10-17T05:09:53.141Z,82.7
2022-10-17T05:10:53.293Z,82.8
2022-10-17T05:11:53.175Z,82.9
2022-10-17T05:12:53.188Z,82.9
2022-10-17T05:13:53.188Z,82.9
2022-10-17T05:14:53.200Z,82.9
2022-10-17T05:15:53.211Z,83.0
2022-10-17T05:16:53.235Z,83.0
2022-10-17T05:17:53.235Z,83.1
2022-10-17T05:18:53.446Z,83.2
2022-10-17T05:19:53.264Z,83.3
2022-10-17T05:20:53.272Z,83.3
2022-10-17T05:21:53.281Z,83.3
2022-10-17T05:22:53.296Z,83.3
2022-10-17T05:23:53.297Z,83.4
2022-10-17T05:24:53.308Z,83.5
2022-10-17T05:25:53.309Z,83.5
2022-10-17T05:26:53.328Z,83.5
2022-10-17T05:27:53.334Z,83.6
2022-10-17T05:28:53.672Z,83.6
2022-10-17T05:29:53.350Z,83.5
2022-10-17T05:30:53.363Z,83.6
2022-10-17T05:31:53.575Z,83.6
2022-10-17T05:32:53.424Z,83.6
2022-10-17T05:33:53.478Z,83.7
2022-10-17T05:34:53.483Z,83.7
2022-10-17T05:35:53.527Z,83.8
2022-10-17T05:36:53.532Z,83.8
2022-10-17T05:37:53.537Z,83.8
2022-10-17T05:38:53.555Z,84.0
2022-10-17T05:39:53.560Z,83.9
2022-10-17T05:40:53.565Z,84.0
2022-10-17T05:41:53.596Z,83.9
2022-10-17T05:42:53.742Z,83.9
2022-10-17T05:43:53.604Z,83.9
2022-10-17T05:44:53.604Z,84.0
2022-10-17T05:45:53.619Z,84.1
2022-10-17T05:46:53.625Z,84.1
2022-10-17T05:47:53.642Z,84.2
2022-10-17T05:48:53.645Z,84.3
2022-10-17T05:49:53.704Z,84.2
2022-10-17T05:50:53.693Z,84.4
2022-10-17T05:51:53.681Z,84.4
2022-10-17T05:52:53.688Z,84.4
2022-10-17T05:53:53.697Z,84.4
2022-10-17T05:54:53.701Z,84.6
2022-10-17T05:55:53.719Z,84.6
2022-10-17T05:56:53.717Z,84.6
2022-10-17T05:57:53.720Z,84.5
2022-10-17T05:59:01.301Z,84.4
2022-10-17T05:59:53.738Z,84.3
2022-10-17T06:00:53.751Z,84.3
2022-10-17T06:01:53.946Z,84.3
2022-10-17T06:02:53.778Z,84.3
2022-10-17T06:03:53.778Z,84.4
2022-10-17T06:04:53.796Z,84.4
2022-10-17T06:05:53.796Z,84.4
2022-10-17T06:06:53.807Z,84.4
2022-10-17T06:08:02.184Z,84.3
2022-10-17T06:08:53.829Z,84.2
2022-10-17T06:09:53.840Z,84.2
2022-10-17T06:10:53.847Z,84.2
2022-10-17T06:11:53.866Z,84.3
2022-10-17T06:12:53.886Z,84.3
2022-10-17T06:13:53.889Z,84.3
2022-10-17T06:14:53.895Z,84.3
2022-10-17T06:15:53.911Z,84.3
2022-10-17T06:16:53.925Z,84.3
2022-10-17T06:17:53.940Z,84.3
2022-10-17T06:18:53.979Z,84.3
2022-10-17T06:19:53.971Z,84.3
2022-10-17T06:20:53.972Z,84.3
2022-10-17T06:21:54.018Z,84.3
2022-10-17T06:22:53.988Z,84.3
2022-10-17T06:23:53.992Z,84.1
2022-10-17T06:24:54.003Z,84.2
2022-10-17T06:25:54.010Z,84.1
2022-10-17T06:26:54.016Z,84.1
2022-10-17T06:28:54.325Z,84.0
2022-10-17T06:29:54.078Z,83.9
2022-10-17T06:30:54.074Z,83.8
2022-10-17T06:31:54.092Z,83.8
2022-10-17T06:32:54.094Z,83.8
2022-10-17T06:33:54.117Z,83.7
2022-10-17T06:34:54.137Z,83.6
2022-10-17T06:35:54.128Z,83.6
2022-10-17T06:36:54.384Z,83.5
2022-10-17T06:37:54.157Z,83.4
2022-10-17T06:38:54.159Z,83.4
2022-10-17T06:39:54.171Z,83.4
2022-10-17T06:40:54.190Z,83.3
2022-10-17T06:41:54.182Z,83.2
2022-10-17T06:42:54.196Z,83.1
2022-10-17T06:43:54.212Z,83.1
2022-10-17T06:44:54.237Z,83.0
2022-10-17T06:45:54.504Z,83.0
2022-10-17T06:46:54.241Z,82.9
2022-10-17T06:47:54.242Z,82.9
2022-10-17T06:48:54.250Z,82.8
2022-10-17T06:49:54.263Z,82.7
2022-10-17T06:50:54.267Z,82.7
2022-10-17T06:51:54.267Z,82.7
2022-10-17T06:52:54.287Z,82.6
2022-10-17T06:53:54.297Z,82.6
2022-10-17T06:54:54.462Z,82.6
2022-10-17T06:55:54.313Z,82.6
2022-10-17T06:56:54.319Z,82.5
2022-10-17T06:57:54.334Z,82.4
2022-10-17T06:58:54.346Z,82.4
2022-10-17T06:59:54.364Z,82.2
2022-10-17T07:01:01.390Z,82.2
2022-10-17T07:01:54.380Z,82.2
2022-10-17T07:02:54.385Z,82.1
2022-10-17T07:03:54.395Z,82.1
2022-10-17T07:04:54.407Z,82.0
2022-10-17T07:05:54.420Z,81.9
2022-10-17T07:06:54.593Z,81.8
2022-10-17T07:07:54.429Z,81.7
2022-10-17T07:08:54.446Z,81.7
2022-10-17T07:09:54.456Z,81.6
2022-10-17T07:10:54.468Z,81.5
2022-10-17T07:11:54.469Z,81.5
2022-10-17T07:12:54.485Z,81.3
2022-10-17T07:13:54.498Z,81.2
2022-10-17T07:14:54.506Z,81.2
2022-10-17T07:15:54.633Z,81.2
2022-10-17T07:16:54.522Z,81.0
2022-10-17T07:17:54.535Z,81.0
2022-10-17T07:18:54.552Z,81.0
2022-10-17T07:19:54.610Z,81.0
2022-10-17T07:20:54.564Z,81.0
2022-10-17T07:21:54.595Z,80.9
2022-10-17T07:22:54.599Z,80.8
2022-10-17T07:23:54.595Z,80.6
2022-10-17T07:24:54.615Z,80.6
2022-10-17T07:25:54.635Z,80.6
2022-10-17T07:26:54.639Z,80.4
2022-10-17T07:27:54.660Z,80.4
2022-10-17T07:28:54.835Z,80.4
2022-10-17T07:29:54.670Z,80.4
2022-10-17T07:30:54.749Z,80.4
2022-10-17T07:31:54.695Z,80.4
2022-10-17T07:32:54.704Z,80.1
2022-10-17T07:33:54.715Z,80.1
2022-10-17T07:34:54.778Z,80.2
2022-10-17T07:35:54.733Z,80.1
2022-10-17T07:36:54.741Z,80.0
2022-10-17T07:37:54.748Z,79.7
2022-10-17T07:38:54.762Z,79.6
2022-10-17T07:39:54.769Z,79.4
2022-10-17T07:40:54.771Z,79.3
2022-10-17T07:41:54.784Z,79.1
2022-10-17T07:42:54.779Z,78.9
2022-10-17T07:43:54.818Z,78.8
2022-10-17T07:44:54.814Z,78.7
2022-10-17T07:45:54.831Z,78.5
2022-10-17T07:46:54.844Z,78.4
2022-10-17T07:47:54.860Z,78.2
2022-10-17T07:48:54.863Z,78.1
2022-10-17T07:49:54.869Z,77.9
2022-10-17T07:50:54.885Z,77.9
2022-10-17T07:51:54.886Z,78.0
2022-10-17T07:52:54.900Z,77.8
2022-10-17T07:53:54.918Z,77.6
2022-10-17T07:54:54.933Z,77.4
2022-10-17T07:55:54.939Z,77.4
2022-10-17T07:56:54.960Z,77.4
2022-10-17T07:57:54.966Z,77.4
2022-10-17T07:58:54.986Z,77.4
2022-10-17T07:59:54.997Z,77.5
2022-10-17T08:00:55.319Z,77.4
2022-10-17T08:01:55.006Z,77.4
2022-10-17T08:02:55.025Z,77.5
2022-10-17T08:03:55.031Z,77.6
2022-10-17T08:04:55.035Z,77.5
2022-10-17T08:05:55.058Z,77.3
2022-10-17T08:07:20.876Z,77.2
2022-10-17T08:07:55.056Z,77.1
2022-10-17T08:08:55.074Z,77.0
2022-10-17T08:09:55.316Z,76.9
2022-10-17T08:10:55.095Z,76.6
2022-10-17T08:11:55.108Z,76.3
2022-10-17T08:12:55.120Z,75.9
2022-10-17T08:13:55.128Z,75.8
2022-10-17T08:14:55.140Z,75.7
2022-10-17T08:15:55.144Z,75.6
2022-10-17T08:16:55.171Z,75.4
2022-10-17T08:17:55.175Z,75.3
2022-10-17T08:18:55.403Z,75.1
2022-10-17T08:19:55.189Z,75.0
2022-10-17T08:21:00.507Z,75.0
2022-10-17T08:21:55.208Z,74.8
2022-10-17T08:22:55.225Z,74.7
2022-10-17T08:23:55.223Z,74.6
2022-10-17T08:24:55.244Z,74.5
2022-10-17T08:25:55.258Z,74.5
2022-10-17T08:26:55.260Z,74.4
2022-10-17T08:27:55.472Z,74.3
2022-10-17T08:28:55.561Z,74.3
2022-10-17T08:29:55.296Z,74.2
2022-10-17T08:30:55.305Z,74.1
2022-10-17T08:32:04.548Z,74.0
2022-10-17T08:32:55.336Z,74.0
2022-10-17T08:33:55.361Z,73.9
2022-10-17T08:34:55.372Z,73.9
2022-10-17T08:35:55.380Z,73.9
2022-10-17T08:36:55.398Z,73.9
2022-10-17T08:37:55.417Z,73.9
2022-10-17T08:38:55.437Z,73.9
2022-10-17T08:39:55.442Z,73.8
2022-10-17T08:40:55.454Z,73.8
2022-10-17T08:41:55.464Z,73.8
2022-10-17T08:42:55.465Z,73.8
2022-10-17T08:43:55.537Z,73.8
2022-10-17T08:44:55.493Z,73.6
2022-10-17T08:45:55.506Z,73.8
2022-10-17T08:46:55.533Z,73.6
2022-10-17T08:47:55.542Z,73.6
2022-10-17T08:48:55.545Z,73.6
2022-10-17T08:49:55.555Z,73.5
2022-10-17T08:50:55.566Z,73.5
2022-10-17T08:51:55.581Z,73.4
2022-10-17T08:52:55.584Z,73.4
2022-10-17T08:53:55.586Z,73.4
2022-10-17T08:54:55.590Z,73.3
2022-10-17T08:55:55.604Z,73.1
2022-10-17T08:56:55.653Z,73.1
2022-10-17T08:57:55.634Z,73.0
2022-10-17T08:58:55.636Z,73.0
2022-10-17T08:59:55.646Z,72.9
2022-10-17T09:00:55.692Z,72.8
2022-10-17T09:01:55.675Z,72.7
2022-10-17T09:02:55.915Z,72.6
2022-10-17T09:03:55.698Z,72.5
2022-10-17T09:04:55.726Z,72.5
2022-10-17T09:05:55.723Z,72.4
2022-10-17T09:06:55.737Z,72.4
2022-10-17T09:07:55.755Z,72.3
2022-10-17T09:08:55.761Z,72.1
2022-10-17T09:09:55.782Z,72.1
2022-10-17T09:10:55.784Z,72.1
2022-10-17T09:11:55.780Z,71.8
2022-10-17T09:12:55.800Z,71.7
2022-10-17T09:13:55.812Z,71.6
2022-10-17T09:14:55.825Z,71.6
2022-10-17T09:15:55.835Z,71.7
2022-10-17T09:16:55.839Z,71.7
2022-10-17T09:17:55.846Z,71.5
2022-10-17T09:18:55.868Z,71.3
2022-10-17T09:19:55.884Z,71.4
2022-10-17T09:20:55.886Z,71.1
2022-10-17T09:21:55.900Z,71.0
2022-10-17T09:24:15.604Z,70.6
2022-10-17T09:24:55.932Z,70.4
2022-10-17T09:25:55.947Z,70.3
2022-10-17T09:26:55.961Z,70.1
2022-10-17T09:27:55.979Z,70.0
2022-10-17T09:28:56.163Z,69.8
2022-10-17T09:29:56.004Z,69.7
2022-10-17T09:30:56.014Z,69.6
2022-10-17T09:32:56.043Z,69.3
2022-10-17T09:33:56.076Z,69.4
2022-10-17T09:34:56.092Z,69.2
2022-10-17T09:35:56.100Z,69.2
2022-10-17T09:36:56.119Z,69.0
2022-10-17T09:37:56.136Z,69.0
2022-10-17T09:38:56.138Z,69.0
2022-10-17T09:40:06.120Z,68.9
2022-10-17T09:40:57.453Z,69.0
2022-10-17T09:41:56.198Z,69.0
2022-10-17T09:42:56.184Z,69.0
2022-10-17T09:43:56.205Z,69.0
2022-10-17T09:44:56.210Z,69.0
2022-10-17T09:45:56.225Z,69.1
2022-10-17T09:46:56.243Z,69.3
2022-10-17T09:48:02.077Z,69.3
2022-10-17T09:48:56.491Z,69.5
2022-10-17T09:49:56.272Z,69.6
2022-10-17T09:51:25.537Z,69.7
2022-10-17T09:51:56.280Z,69.6
2022-10-17T09:52:56.325Z,69.8
2022-10-17T09:53:56.398Z,69.9
2022-10-17T09:54:56.322Z,69.9
2022-10-17T09:55:56.329Z,70.0
2022-10-17T09:56:56.349Z,69.9
2022-10-17T09:57:56.362Z,69.9
2022-10-17T09:58:56.365Z,69.8
2022-10-17T09:59:56.380Z,69.7
2022-10-17T10:00:56.588Z,69.6
2022-10-17T10:01:56.411Z,69.2
2022-10-17T10:02:56.439Z,69.2
2022-10-17T10:03:56.427Z,69.0
2022-10-17T10:05:07.530Z,69.0
2022-10-17T10:05:56.464Z,68.6
2022-10-17T10:06:56.472Z,68.4
2022-10-17T10:07:56.488Z,68.5
2022-10-17T10:08:56.495Z,68.3
2022-10-17T10:09:56.514Z,68.0
2022-10-17T10:10:56.521Z,68.1
2022-10-17T10:11:56.538Z,67.7
2022-10-17T10:12:56.537Z,67.8
2022-10-17T10:13:56.823Z,67.7
2022-10-17T10:14:56.565Z,67.7
2022-10-17T10:15:56.580Z,67.6
2022-10-17T10:16:56.582Z,67.6
2022-10-17T10:17:56.599Z,67.4
2022-10-17T10:18:56.621Z,67.4
2022-10-17T10:19:56.629Z,67.3
2022-10-17T10:20:56.643Z,67.1
2022-10-17T10:21:56.657Z,67.2
2022-10-17T10:22:58.896Z,67.1
2022-10-17T10:23:56.676Z,67.0
2022-10-17T10:24:56.690Z,67.0
2022-10-17T10:25:56.707Z,67.1
2022-10-17T10:26:56.729Z,67.0
2022-10-17T10:28:01.769Z,67.0
2022-10-17T10:28:56.839Z,67.1
2022-10-17T10:29:56.774Z,67.2
2022-10-17T10:30:56.777Z,67.3
2022-10-17T10:31:56.790Z,67.4
2022-10-17T10:32:56.802Z,67.5
2022-10-17T10:33:57.849Z,67.5
2022-10-17T10:34:56.819Z,67.6
2022-10-17T10:35:56.835Z,67.7
2022-10-17T10:36:56.850Z,67.8
2022-10-17T10:37:56.864Z,67.8
2022-10-17T10:39:03.996Z,67.8
2022-10-17T10:39:56.886Z,67.8
2022-10-17T10:40:56.917Z,67.8
2022-10-17T10:41:56.908Z,67.6
2022-10-17T10:43:05.854Z,67.6
2022-10-17T10:43:56.935Z,67.7
2022-10-17T10:44:56.950Z,67.6
2022-10-17T10:45:56.947Z,67.5
2022-10-17T10:46:56.943Z,67.2
2022-10-17T10:47:56.955Z,67.2
2022-10-17T10:48:56.966Z,67.1
2022-10-17T10:49:56.984Z,67.2
2022-10-17T10:50:57.005Z,67.1
2022-10-17T10:51:57.015Z,66.9
2022-10-17T10:52:57.016Z,66.7
2022-10-17T10:53:57.041Z,66.6
2022-10-17T10:54:57.099Z,66.6
2022-10-17T10:55:57.077Z,66.5
2022-10-17T10:56:57.072Z,66.4
2022-10-17T10:57:57.088Z,66.0
2022-10-17T10:58:57.114Z,66.1
2022-10-17T10:59:57.131Z,66.1
2022-10-17T11:00:57.323Z,66.1
2022-10-17T11:01:57.163Z,66.1
2022-10-17T11:02:57.163Z,66.1
2022-10-17T11:03:57.184Z,66.0
2022-10-17T11:04:57.203Z,66.1
2022-10-17T11:05:57.213Z,66.2
2022-10-17T11:06:57.230Z,66.3
2022-10-17T11:07:57.232Z,66.4
2022-10-17T11:08:57.241Z,66.5
2022-10-17T11:09:57.299Z,66.4
2022-10-17T11:10:57.280Z,66.5
2022-10-17T11:11:57.293Z,66.6
2022-10-17T11:12:57.349Z,66.6
2022-10-17T11:13:57.330Z,66.8
2022-10-17T11:14:57.368Z,66.8
2022-10-17T11:15:57.358Z,66.9
2022-10-17T11:16:57.354Z,67.1
2022-10-17T11:17:57.378Z,67.2
2022-10-17T11:18:57.583Z,67.3
2022-10-17T11:19:57.401Z,67.4
2022-10-17T11:20:57.396Z,67.4
2022-10-17T11:21:57.409Z,67.5
2022-10-17T11:22:57.434Z,67.7
2022-10-17T11:23:57.430Z,67.6
2022-10-17T11:24:57.434Z,67.6
2022-10-17T11:25:57.457Z,67.7
2022-10-17T11:26:57.465Z,67.9
2022-10-17T11:28:05.490Z,67.9
2022-10-17T11:28:57.667Z,67.7
2022-10-17T11:29:57.516Z,67.7
2022-10-17T11:30:57.549Z,67.7
2022-10-17T11:31:57.547Z,67.9
2022-10-17T11:32:57.570Z,67.9
2022-10-17T11:33:57.577Z,67.6
2022-10-17T11:34:57.607Z,67.6
2022-10-17T11:35:59.123Z,67.5
2022-10-17T11:36:57.629Z,67.3
2022-10-17T11:37:57.637Z,67.1
2022-10-17T11:38:57.659Z,66.9
2022-10-17T11:39:57.663Z,66.8
2022-10-17T11:40:57.668Z,66.7
2022-10-17T11:42:04.184Z,66.6
2022-10-17T11:42:57.691Z,66.5
2022-10-17T11:43:57.704Z,66.4
2022-10-17T11:44:57.719Z,66.3
2022-10-17T11:45:57.732Z,66.3
2022-10-17T11:46:57.744Z,66.2
2022-10-17T11:47:57.773Z,66.3
2022-10-17T11:48:57.781Z,66.3
2022-10-17T11:49:58.621Z,66.3
2022-10-17T11:52:03.456Z,66.1
2022-10-17T11:52:59.104Z,66.1
2022-10-17T11:53:57.851Z,66.3
2022-10-17T11:54:57.845Z,66.0
2022-10-17T11:55:57.868Z,66.0
2022-10-17T11:56:57.873Z,66.0
2022-10-17T11:57:57.893Z,65.8
2022-10-17T11:58:57.907Z,65.9
2022-10-17T11:59:57.907Z,65.9
2022-10-17T12:00:57.930Z,66.0
2022-10-17T12:01:57.940Z,66.0
2022-10-17T12:02:57.944Z,66.1
2022-10-17T12:03:58.227Z,66.2
2022-10-17T12:04:57.975Z,66.4
2022-10-17T12:05:57.984Z,66.6
2022-10-17T12:06:57.983Z,66.9
2022-10-17T12:07:58.020Z,67.2
2022-10-17T12:08:58.005Z,67.4
2022-10-17T12:09:58.895Z,67.6
2022-10-17T12:10:58.029Z,67.8
2022-10-17T12:11:58.032Z,67.9
2022-10-17T12:12:58.055Z,68.2
2022-10-17T12:13:58.080Z,68.4
2022-10-17T12:14:58.073Z,68.7
2022-10-17T12:15:58.100Z,69.3
2022-10-17T12:16:58.101Z,69.6
2022-10-17T12:17:58.107Z,69.8
2022-10-17T12:18:58.127Z,70.7
2022-10-17T12:19:58.144Z,71.3
2022-10-17T12:20:58.165Z,71.6
2022-10-17T12:21:58.176Z,72.2
2022-10-17T12:22:58.222Z,72.7
2022-10-17T12:23:58.220Z,73.2
2022-10-17T12:24:58.235Z,73.9
2022-10-17T12:26:05.648Z,74.0
2022-10-17T12:26:58.252Z,74.3
2022-10-17T12:27:58.258Z,75.2
2022-10-17T12:28:58.444Z,75.3
2022-10-17T12:29:58.275Z,75.3
2022-10-17T12:30:58.296Z,75.2
2022-10-17T12:31:58.303Z,75.6
2022-10-17T12:33:08.542Z,75.4
2022-10-17T12:33:58.327Z,75.9
2022-10-17T12:34:58.332Z,76.1
2022-10-17T12:35:58.339Z,76.2
2022-10-17T12:36:58.353Z,76.4
2022-10-17T12:37:59.540Z,76.7
2022-10-17T12:38:58.370Z,76.6
2022-10-17T12:39:58.374Z,76.5
2022-10-17T12:40:58.391Z,76.7
2022-10-17T12:41:58.398Z,76.8
2022-10-17T12:42:58.408Z,76.6
2022-10-17T12:43:58.424Z,76.6
2022-10-17T12:44:58.438Z,77.0
2022-10-17T12:45:58.443Z,76.8
2022-10-17T12:46:58.470Z,76.8
2022-10-17T12:47:58.886Z,76.5
2022-10-17T12:48:58.706Z,76.1
2022-10-17T12:49:58.510Z,76.4
2022-10-17T12:51:58.520Z,76.1
2022-10-17T12:52:58.560Z,76.1
2022-10-17T12:53:58.552Z,76.1
2022-10-17T12:55:14.155Z,76.1
2022-10-17T12:55:58.575Z,75.9
2022-10-17T12:56:58.592Z,75.7
2022-10-17T12:57:58.625Z,75.8
2022-10-17T12:58:58.604Z,75.8
2022-10-17T12:59:58.917Z,75.8
2022-10-17T13:01:24.048Z,76.1
2022-10-17T13:01:58.812Z,76.0
2022-10-17T13:02:58.639Z,76.1
2022-10-17T13:03:58.666Z,76.2
2022-10-17T13:04:58.676Z,76.2
2022-10-17T13:05:58.691Z,76.4
2022-10-17T13:06:59.011Z,76.6
2022-10-17T13:07:58.719Z,76.3
2022-10-17T13:09:05.700Z,76.7
2022-10-17T13:09:58.746Z,77.1
2022-10-17T13:10:58.755Z,77.3
2022-10-17T13:11:58.762Z,77.2
2022-10-17T13:12:58.778Z,77.2
2022-10-17T13:13:58.794Z,77.5
2022-10-17T13:14:58.809Z,77.6
2022-10-17T13:15:58.835Z,77.8
2022-10-17T13:16:58.872Z,77.6
2022-10-17T13:17:58.838Z,77.9
2022-10-17T13:18:58.850Z,77.8
2022-10-17T13:19:58.868Z,77.9
2022-10-17T13:20:58.888Z,78.2
2022-10-17T13:22:07.463Z,78.2
2022-10-17T13:22:58.985Z,78.1
2022-10-17T13:23:58.937Z,78.2
2022-10-17T13:24:58.954Z,78.4
2022-10-17T13:25:58.954Z,78.5
2022-10-17T13:26:58.968Z,80.8
2022-10-17T13:27:58.982Z,82.7
2022-10-17T13:28:59.335Z,84.0
2022-10-17T13:29:59.022Z,85.2
2022-10-17T13:30:59.021Z,86.5
2022-10-17T13:31:59.033Z,87.0
2022-10-17T13:32:59.053Z,87.6
2022-10-17T13:33:59.072Z,87.7
2022-10-17T13:34:59.083Z,88.1
2022-10-17T13:36:01.893Z,88.3
2022-10-17T13:36:59.116Z,88.3
2022-10-17T13:37:59.181Z,88.6
2022-10-17T13:38:59.139Z,88.8
2022-10-17T13:40:40.664Z,89.2
2022-10-17T13:41:59.208Z,88.9
2022-10-17T13:42:59.222Z,89.2